Main page
METAR-TAF:

METAR-TAF

Airports :

Bahrain, Bahrain

Bahrain International Airport

latitude: 26-16N, longitude: 050-39E, elevation: 2 m

Current weather observation

The report was made 31 minutes ago, at 03:30 UTC
Wind 3 kt from the West/Southwest, varying between Southwest and West
Temperature 29°C
Humidity 52%
Pressure 1013 hPa
Visibility 10 km or more
no clouds below 1500 m and no cumulonimbus

METAR: OBBI 240330Z 25003KT 220V280 CAVOK 29/18 Q1013 NOSIG

Time: 07:01 (04:01 UTC)

Forecast

The report was made 5 hours and 1 minutes ago, at 23:00 UTC
Forecast valid from 24 at 00 UTC to 25 at 06 UTC
Wind 8 kt from the North
Visibility 10 km or more
no clouds below 1500 m and no cumulonimbus
Temporary
from 25 at 00 UTC to 25 at 06 UTC
Visibility: 5000 m
haze
Probability 30% :
Temporary
from 25 at 01 UTC to 25 at 05 UTC
Visibility: 3000 m
Scattered clouds at a height of 800 ft
mist

TAF: OBBI 232300Z 2400/2506 01008KT CAVOK TEMPO 2500/2506 5000 HZ PROB30 TEMPO 2501/2505 3000 BR SCT008

Weather observations and forecasts of more than 4000 airports (METAR and TAF reports).

The available stations are represented by yellow and red dots on the map.

Hover mouse over dot to see the name of the station.

Then click to see weather observations and forecasts.

To change the map : click on the green buttons with a black cross to zoom in, on the green button with a dash to zoom out, or on the green arrows for adjacent maps.


METAR-TAF: